createdAt,value
2022-09-16T00:01:56.809Z,4.88
2022-09-16T00:04:25.432Z,4.72
2022-09-16T00:06:55.121Z,4.68
2022-09-16T00:09:23.401Z,4.20
2022-09-16T00:11:52.070Z,4.20
2022-09-16T00:14:20.593Z,4.28
2022-09-16T00:16:50.308Z,4.35
2022-09-16T00:19:18.665Z,4.03
2022-09-16T00:21:48.989Z,4.30
2022-09-16T00:24:17.494Z,4.13
2022-09-16T00:26:45.831Z,4.18
2022-09-16T00:29:14.416Z,4.07
2022-09-16T00:31:42.789Z,4.15
2022-09-16T00:34:14.726Z,4.40
2022-09-16T00:36:43.067Z,4.22
2022-09-16T00:39:11.368Z,4.05
2022-09-16T00:41:39.704Z,3.63
2022-09-16T00:44:09.105Z,3.70
2022-09-16T00:46:39.187Z,3.70
2022-09-16T00:49:12.022Z,3.75
2022-09-16T00:51:44.289Z,4.13
2022-09-16T00:54:12.826Z,3.55
2022-09-16T00:56:43.044Z,4.00
2022-09-16T00:59:12.888Z,3.72
2022-09-16T01:01:43.175Z,4.05
2022-09-16T01:04:13.337Z,3.50
2022-09-16T01:06:43.065Z,3.65
2022-09-16T01:09:11.389Z,3.30
2022-09-16T01:11:39.753Z,3.67
2022-09-16T01:14:26.090Z,3.55
2022-09-16T01:16:59.266Z,3.20
2022-09-16T01:19:34.560Z,3.28
2022-09-16T01:22:10.113Z,3.20
2022-09-16T01:24:57.146Z,3.35
2022-09-16T01:27:35.207Z,3.60
2022-09-16T01:30:15.410Z,3.60
2022-09-16T01:32:51.260Z,3.45
2022-09-16T01:35:23.807Z,3.33
2022-09-16T01:37:57.819Z,3.28
2022-09-16T01:40:29.236Z,3.75
2022-09-16T01:43:00.751Z,3.10
2022-09-16T01:45:32.364Z,3.45
2022-09-16T01:48:05.874Z,3.30
2022-09-16T01:50:36.147Z,3.50
2022-09-16T01:53:10.034Z,3.33
2022-09-16T01:55:40.884Z,3.50
2022-09-16T01:58:12.373Z,3.22
2022-09-16T02:00:42.492Z,3.38
2022-09-16T02:03:13.875Z,3.13
2022-09-16T02:05:45.831Z,3.20
2022-09-16T02:08:17.753Z,3.10
2022-09-16T02:10:48.249Z,3.10
2022-09-16T02:13:18.898Z,3.55
2022-09-16T02:15:49.093Z,3.15
2022-09-16T02:18:21.579Z,2.65
2022-09-16T02:20:50.764Z,3.05
2022-09-16T02:23:20.909Z,3.22
2022-09-16T02:25:52.845Z,3.40
2022-09-16T02:28:26.236Z,3.20
2022-09-16T02:30:58.392Z,3.10
2022-09-16T02:33:32.385Z,3.63
2022-09-16T02:36:01.964Z,3.40
2022-09-16T02:38:32.793Z,3.40
2022-09-16T02:41:02.494Z,3.33
2022-09-16T02:43:31.112Z,3.80
2022-09-16T02:46:01.720Z,3.30
2022-09-16T02:48:34.761Z,3.53
2022-09-16T02:51:06.115Z,3.85
2022-09-16T02:53:39.102Z,3.17
2022-09-16T02:56:11.931Z,2.90
2022-09-16T02:58:40.314Z,2.90
2022-09-16T03:01:08.669Z,2.90
2022-09-16T03:03:38.391Z,2.90
2022-09-16T03:06:12.790Z,2.60
2022-09-16T03:08:41.727Z,3.20
2022-09-16T03:11:12.351Z,3.10
2022-09-16T03:13:46.037Z,2.97
2022-09-16T03:16:19.242Z,2.78
2022-09-16T03:18:53.178Z,2.70
2022-09-16T03:21:26.594Z,2.45
2022-09-16T03:23:59.317Z,2.53
2022-09-16T03:26:31.477Z,2.47
2022-09-16T03:29:04.771Z,2.50
2022-09-16T03:31:34.598Z,2.72
2022-09-16T03:34:07.655Z,2.60
2022-09-16T03:36:37.713Z,3.00
2022-09-16T03:39:06.873Z,2.60
2022-09-16T03:41:35.681Z,2.67
2022-09-16T03:44:04.563Z,2.50
2022-09-16T03:46:33.080Z,2.60
2022-09-16T03:49:01.505Z,2.42
2022-09-16T03:51:31.153Z,2.13
2022-09-16T03:53:59.527Z,2.85
2022-09-16T03:56:27.815Z,2.45
2022-09-16T03:58:56.136Z,2.42
2022-09-16T04:01:24.567Z,2.05
2022-09-16T04:03:53.342Z,2.30
2022-09-16T04:06:21.645Z,3.05
2022-09-16T04:08:51.784Z,2.30
2022-09-16T04:11:20.100Z,2.58
2022-09-16T04:13:48.381Z,2.58
2022-09-16T04:16:20.601Z,2.70
2022-09-16T04:18:49.042Z,2.78
2022-09-16T04:21:17.728Z,1.92
2022-09-16T04:23:48.633Z,2.30
2022-09-16T04:26:18.723Z,2.30
2022-09-16T04:28:47.171Z,2.40
2022-09-16T04:31:16.772Z,2.25
2022-09-16T04:33:46.484Z,2.17
2022-09-16T04:36:15.561Z,2.00
2022-09-16T04:38:44.814Z,2.78
2022-09-16T04:41:13.965Z,2.40
2022-09-16T04:43:43.650Z,2.65
2022-09-16T04:46:12.009Z,2.28
2022-09-16T04:48:40.381Z,2.15
2022-09-16T04:51:09.424Z,2.33
2022-09-16T04:53:38.482Z,2.33
2022-09-16T04:56:07.853Z,2.45
2022-09-16T04:58:36.604Z,2.30
2022-09-16T05:01:12.909Z,1.90
2022-09-16T05:03:41.978Z,2.13
2022-09-16T05:06:11.884Z,1.90
2022-09-16T05:08:40.475Z,2.08
2022-09-16T05:11:09.390Z,1.98
2022-09-16T05:13:37.876Z,2.20
2022-09-16T05:16:07.415Z,1.83
2022-09-16T05:18:37.216Z,1.77
2022-09-16T05:21:06.751Z,1.80
2022-09-16T05:23:45.840Z,1.92
2022-09-16T05:26:17.140Z,1.77
2022-09-16T05:28:46.606Z,2.10
2022-09-16T05:31:16.038Z,1.63
2022-09-16T05:33:46.730Z,1.92
2022-09-16T05:36:16.239Z,1.83
2022-09-16T05:38:59.182Z,1.52
2022-09-16T05:41:38.173Z,1.70
2022-09-16T05:44:07.862Z,1.65
2022-09-16T05:46:36.399Z,1.60
2022-09-16T05:49:08.565Z,1.70
2022-09-16T05:51:38.417Z,1.45
2022-09-16T05:54:07.086Z,1.60
2022-09-16T05:56:35.598Z,1.52
2022-09-16T05:59:04.539Z,1.70
2022-09-16T06:01:34.765Z,1.80
2022-09-16T06:04:04.405Z,1.65
2022-09-16T06:06:34.850Z,1.73
2022-09-16T06:09:05.804Z,1.90
2022-09-16T06:11:34.757Z,1.70
2022-09-16T06:14:03.059Z,2.08
2022-09-16T06:16:35.557Z,1.85
2022-09-16T06:19:05.223Z,1.70
2022-09-16T06:21:35.407Z,2.13
2022-09-16T06:24:04.219Z,1.75
2022-09-16T06:26:33.692Z,1.58
2022-09-16T06:29:02.010Z,1.85
2022-09-16T06:31:30.737Z,1.98
2022-09-16T06:34:01.776Z,1.50
2022-09-16T06:36:31.170Z,2.80
2022-09-16T06:39:00.934Z,2.22
2022-09-16T06:41:29.713Z,2.40
2022-09-16T06:43:58.030Z,2.00
2022-09-16T06:46:27.160Z,1.80
2022-09-16T06:49:01.590Z,1.73
2022-09-16T06:51:35.358Z,1.67
2022-09-16T06:54:06.398Z,1.70
2022-09-16T06:56:36.292Z,1.90
2022-09-16T06:59:05.334Z,2.00
2022-09-16T07:01:36.182Z,2.58
2022-09-16T07:04:05.970Z,1.70
2022-09-16T07:07:08.635Z,1.65
2022-09-16T07:09:25.893Z,1.60
2022-09-16T07:11:55.108Z,1.58
2022-09-16T07:14:24.472Z,2.03
2022-09-16T07:16:53.127Z,1.85
2022-09-16T07:19:23.609Z,3.22
2022-09-16T07:21:51.903Z,1.88
2022-09-16T07:24:20.173Z,1.48
2022-09-16T07:26:49.808Z,1.63
2022-09-16T07:29:20.740Z,1.48
2022-09-16T07:31:53.660Z,1.50
2022-09-16T07:34:22.803Z,1.27
2022-09-16T07:36:51.147Z,1.58
2022-09-16T07:39:21.219Z,1.30
2022-09-16T07:41:50.926Z,1.40
2022-09-16T07:44:22.930Z,1.48
2022-09-16T07:46:51.608Z,1.50
2022-09-16T07:49:20.345Z,1.80
2022-09-16T07:51:49.021Z,1.42
2022-09-16T07:54:21.513Z,1.50
2022-09-16T07:56:51.358Z,1.52
2022-09-16T07:59:20.424Z,1.20
2022-09-16T08:01:49.456Z,1.23
2022-09-16T08:04:21.483Z,1.30
2022-09-16T08:06:51.401Z,1.60
2022-09-16T08:09:39.697Z,1.58
2022-09-16T08:12:11.159Z,1.35
2022-09-16T08:14:40.035Z,1.50
2022-09-16T08:17:08.378Z,1.45
2022-09-16T08:19:38.822Z,1.30
2022-09-16T08:22:07.182Z,1.48
2022-09-16T08:24:38.751Z,1.20
2022-09-16T08:27:07.092Z,1.90
2022-09-16T08:29:36.781Z,1.88
2022-09-16T08:32:05.153Z,2.60
2022-09-16T08:34:35.292Z,5.30
2022-09-16T08:37:03.663Z,2.00
2022-09-16T08:39:31.948Z,1.60
2022-09-16T08:42:06.254Z,2.22
2022-09-16T08:44:42.275Z,1.98
2022-09-16T08:47:20.320Z,2.40
2022-09-16T08:49:51.144Z,2.50
2022-09-16T08:52:25.072Z,2.90
2022-09-16T08:54:55.141Z,1.90
2022-09-16T08:57:25.303Z,2.03
2022-09-16T08:59:56.120Z,1.63
2022-09-16T09:02:30.970Z,1.92
2022-09-16T09:04:59.762Z,1.83
2022-09-16T09:07:31.314Z,1.60
2022-09-16T09:10:07.160Z,1.98
2022-09-16T09:12:43.078Z,2.28
2022-09-16T09:15:29.264Z,1.40
2022-09-16T09:18:03.105Z,1.60
2022-09-16T09:20:36.634Z,1.70
2022-09-16T09:23:19.824Z,1.58
2022-09-16T09:25:51.585Z,1.50
2022-09-16T09:28:39.890Z,1.45
2022-09-16T09:31:16.583Z,1.90
2022-09-16T09:33:50.455Z,2.17
2022-09-16T09:36:28.043Z,2.17
2022-09-16T09:39:04.076Z,1.70
2022-09-16T09:41:35.074Z,1.58
2022-09-16T09:44:06.898Z,1.75
2022-09-16T09:46:38.386Z,1.73
2022-09-16T09:49:12.367Z,2.03
2022-09-16T09:51:44.424Z,1.73
2022-09-16T09:54:18.627Z,1.80
2022-09-16T09:56:47.534Z,1.58
2022-09-16T09:59:20.118Z,1.50
2022-09-16T10:01:54.815Z,1.63
2022-09-16T10:04:23.127Z,1.60
2022-09-16T10:06:52.716Z,1.50
2022-09-16T10:09:22.013Z,1.85
2022-09-16T10:11:51.238Z,2.33
2022-09-16T10:14:29.777Z,2.10
2022-09-16T10:17:03.014Z,2.00
2022-09-16T10:19:31.932Z,1.90
2022-09-16T10:22:10.848Z,1.80
2022-09-16T10:24:40.520Z,1.60
2022-09-16T10:27:21.040Z,2.08
2022-09-16T10:29:49.856Z,1.50
2022-09-16T10:32:21.169Z,1.67
2022-09-16T10:34:49.949Z,1.48
2022-09-16T10:37:19.661Z,1.90
2022-09-16T10:39:51.988Z,2.15
2022-09-16T10:42:22.523Z,2.47
2022-09-16T10:44:51.581Z,1.90
2022-09-16T10:47:23.709Z,1.63
2022-09-16T10:49:53.261Z,2.28
2022-09-16T10:52:26.270Z,2.15
2022-09-16T10:54:55.075Z,1.85
2022-09-16T10:57:24.715Z,1.92
2022-09-16T11:00:04.726Z,1.88
2022-09-16T11:02:54.197Z,1.60
2022-09-16T11:05:29.699Z,2.03
2022-09-16T11:08:02.066Z,4.00
2022-09-16T11:10:34.199Z,2.38
2022-09-16T11:13:11.512Z,1.40
2022-09-16T11:15:47.181Z,2.42
2022-09-16T11:18:23.635Z,2.10
2022-09-16T11:21:03.921Z,1.50
2022-09-16T11:23:36.912Z,1.83
2022-09-16T11:26:09.661Z,1.60
2022-09-16T11:28:47.533Z,2.17
2022-09-16T11:31:21.094Z,1.95
2022-09-16T11:33:53.613Z,1.67
2022-09-16T11:36:27.145Z,1.73
2022-09-16T11:39:01.845Z,1.88
2022-09-16T11:41:32.519Z,1.30
2022-09-16T11:44:24.440Z,1.98
2022-09-16T11:46:57.703Z,1.80
2022-09-16T11:49:38.209Z,1.58
2022-09-16T11:52:15.373Z,1.45
2022-09-16T11:54:56.002Z,1.80
2022-09-16T11:57:26.296Z,1.40
2022-09-16T11:59:56.836Z,1.30
2022-09-16T12:02:27.306Z,1.60
2022-09-16T12:05:00.036Z,1.70
2022-09-16T12:07:33.175Z,1.50
2022-09-16T12:10:03.890Z,1.52
2022-09-16T12:12:35.164Z,1.23
2022-09-16T12:15:06.061Z,1.65
2022-09-16T12:17:35.981Z,1.20
2022-09-16T12:20:09.594Z,1.40
2022-09-16T12:25:10.524Z,1.63
2022-09-16T12:27:42.916Z,1.40
2022-09-16T12:30:17.635Z,1.58
2022-09-16T12:32:56.954Z,1.55
2022-09-16T12:35:29.032Z,1.50
2022-09-16T12:37:58.721Z,1.98
2022-09-16T12:40:31.182Z,1.35
2022-09-16T12:43:14.578Z,1.27
2022-09-16T12:46:01.720Z,2.33
2022-09-16T12:48:49.323Z,1.63
2022-09-16T12:51:35.341Z,1.20
2022-09-16T12:54:22.401Z,1.10
2022-09-16T12:57:05.754Z,1.33
2022-09-16T12:59:44.343Z,0.80
2022-09-16T13:02:14.892Z,0.93
2022-09-16T13:04:46.493Z,0.80
2022-09-16T13:07:21.949Z,0.80
2022-09-16T13:09:50.643Z,0.82
2022-09-16T13:12:38.029Z,1.00
2022-09-16T13:15:08.776Z,0.88
2022-09-16T13:17:38.181Z,1.10
2022-09-16T13:20:08.847Z,1.00
2022-09-16T13:22:39.659Z,0.80
2022-09-16T13:25:13.088Z,0.80
2022-09-16T13:27:54.525Z,1.08
2022-09-16T13:30:34.118Z,1.00
2022-09-16T13:33:18.011Z,1.30
2022-09-16T13:38:27.880Z,0.85
2022-09-16T13:41:10.167Z,1.00
2022-09-16T13:43:52.027Z,1.05
2022-09-16T13:46:44.529Z,1.30
2022-09-16T13:49:17.896Z,0.95
2022-09-16T13:51:50.347Z,0.77
2022-09-16T13:54:47.940Z,1.00
2022-09-16T13:57:35.352Z,0.80
2022-09-16T14:00:41.444Z,1.23
2022-09-16T14:03:21.970Z,1.05
2022-09-16T14:06:07.429Z,0.70
2022-09-16T14:08:42.978Z,0.80
2022-09-16T14:11:16.208Z,0.73
2022-09-16T14:13:51.089Z,1.45
2022-09-16T14:16:23.148Z,0.75
2022-09-16T14:18:57.535Z,1.35
2022-09-16T14:21:27.199Z,0.73
2022-09-16T14:23:55.741Z,0.70
2022-09-16T14:26:25.081Z,0.85
2022-09-16T14:29:03.753Z,0.70
2022-09-16T14:31:35.178Z,0.75
2022-09-16T14:34:27.671Z,0.47
2022-09-16T14:36:58.500Z,0.55
2022-09-16T14:39:28.368Z,1.08
2022-09-16T14:41:58.674Z,0.60
2022-09-16T14:44:29.067Z,0.65
2022-09-16T14:47:07.647Z,1.00
2022-09-16T14:49:40.223Z,0.77
2022-09-16T14:52:19.831Z,0.98
2022-09-16T14:54:48.441Z,0.68
2022-09-16T14:57:19.242Z,0.82
2022-09-16T14:59:47.751Z,0.70
2022-09-16T15:02:25.003Z,0.65
2022-09-16T15:04:58.846Z,0.90
2022-09-16T15:07:29.818Z,0.77
2022-09-16T15:10:00.874Z,0.70
2022-09-16T15:12:32.479Z,0.60
2022-09-16T15:15:06.664Z,0.90
2022-09-16T15:17:37.144Z,0.90
2022-09-16T15:20:08.417Z,0.70
2022-09-16T15:22:43.183Z,0.90
2022-09-16T15:25:21.585Z,0.70
2022-09-16T15:27:50.144Z,0.73
2022-09-16T15:30:26.480Z,0.40
2022-09-16T15:33:08.959Z,0.60
2022-09-16T15:35:40.958Z,0.40
2022-09-16T15:38:13.843Z,0.40
2022-09-16T15:40:42.868Z,0.90
2022-09-16T15:43:14.992Z,1.20
2022-09-16T15:46:01.943Z,1.23
2022-09-16T15:48:36.686Z,1.20
2022-09-16T15:51:11.502Z,0.70
2022-09-16T15:53:43.067Z,0.80
2022-09-16T15:56:19.468Z,0.30
2022-09-16T15:58:49.463Z,0.50
2022-09-16T16:04:41.707Z,0.60
2022-09-16T16:07:34.333Z,0.70
2022-09-16T16:10:17.713Z,0.60
2022-09-16T16:12:49.608Z,0.60
2022-09-16T16:15:18.759Z,0.52
2022-09-16T16:17:48.539Z,0.50
2022-09-16T16:20:21.476Z,0.50
2022-09-16T16:22:50.653Z,0.60
2022-09-16T16:25:19.545Z,0.70
2022-09-16T16:27:48.460Z,0.90
2022-09-16T16:30:17.508Z,0.50
2022-09-16T16:32:46.281Z,0.60
2022-09-16T16:35:15.133Z,0.60
2022-09-16T16:37:46.782Z,0.57
2022-09-16T16:40:18.374Z,0.60
2022-09-16T16:42:46.728Z,0.70
2022-09-16T16:45:15.392Z,0.60
2022-09-16T16:47:46.527Z,0.45
2022-09-16T16:50:15.294Z,0.57
2022-09-16T16:52:45.308Z,0.52
2022-09-16T16:55:14.363Z,0.40
2022-09-16T16:57:44.388Z,0.90
2022-09-16T17:00:18.014Z,0.60
2022-09-16T17:02:49.013Z,0.70
2022-09-16T17:05:17.579Z,0.80
2022-09-16T17:07:47.589Z,0.80
2022-09-16T17:10:16.421Z,0.80
2022-09-16T17:12:44.957Z,0.60
2022-09-16T17:15:13.583Z,0.80
2022-09-16T17:17:44.800Z,0.73
2022-09-16T17:20:15.380Z,0.57
2022-09-16T17:22:45.253Z,1.02
2022-09-16T17:25:19.925Z,0.50
2022-09-16T17:27:48.455Z,0.60
2022-09-16T17:30:16.986Z,0.60
2022-09-16T17:32:45.468Z,0.80
2022-09-16T17:35:14.034Z,0.57
2022-09-16T17:37:42.557Z,0.47
2022-09-16T17:40:11.262Z,0.50
2022-09-16T17:42:41.539Z,0.65
2022-09-16T17:45:12.428Z,0.70
2022-09-16T17:47:41.057Z,0.90
2022-09-16T17:50:11.326Z,1.27
2022-09-16T17:52:39.844Z,1.70
2022-09-16T17:55:08.459Z,0.90
2022-09-16T17:57:36.910Z,1.00
2022-09-16T18:00:07.573Z,0.70
2022-09-16T18:02:37.720Z,0.80
2022-09-16T18:05:06.554Z,0.70
2022-09-16T18:07:36.332Z,0.77
2022-09-16T18:10:04.960Z,0.90
2022-09-16T18:12:34.166Z,1.00
2022-09-16T18:15:03.541Z,0.50
2022-09-16T18:17:33.343Z,0.93
2022-09-16T18:20:06.962Z,0.68
2022-09-16T18:22:35.616Z,0.98
2022-09-16T18:25:04.585Z,1.20
2022-09-16T18:27:32.938Z,0.80
2022-09-16T18:30:02.263Z,1.10
2022-09-16T18:32:32.715Z,1.10
2022-09-16T18:35:02.402Z,0.90
2022-09-16T18:37:32.857Z,0.68
2022-09-16T18:40:02.683Z,0.60
2022-09-16T18:42:31.107Z,0.68
2022-09-16T18:44:59.667Z,0.95
2022-09-16T18:47:30.230Z,1.20
2022-09-16T18:49:58.609Z,1.40
2022-09-16T18:52:28.543Z,1.10
2022-09-16T18:54:57.375Z,0.95
2022-09-16T18:57:25.681Z,1.05
2022-09-16T18:59:54.048Z,0.88
2022-09-16T19:02:26.740Z,0.90
2022-09-16T19:04:55.203Z,0.93
2022-09-16T19:07:27.983Z,1.30
2022-09-16T19:09:58.009Z,1.20
2022-09-16T19:12:27.617Z,1.00
2022-09-16T19:14:58.158Z,0.90
2022-09-16T19:17:29.226Z,1.00
2022-09-16T19:19:57.649Z,1.13
2022-09-16T19:22:27.745Z,1.15
2022-09-16T19:24:56.078Z,1.20
2022-09-16T19:27:26.257Z,0.90
2022-09-16T19:30:01.712Z,0.95
2022-09-16T19:32:30.169Z,1.00
2022-09-16T19:34:58.701Z,0.82
2022-09-16T19:37:27.104Z,0.70
2022-09-16T19:39:55.718Z,1.02
2022-09-16T19:42:24.126Z,0.70
2022-09-16T19:44:54.151Z,0.90
2022-09-16T19:47:22.909Z,0.95
2022-09-16T19:49:51.745Z,1.00
2022-09-16T19:52:20.167Z,0.90
2022-09-16T19:54:49.130Z,0.90
2022-09-16T19:57:19.171Z,1.20
2022-09-16T19:59:47.973Z,0.80
2022-09-16T20:02:20.754Z,0.80
2022-09-16T20:04:50.423Z,0.80
2022-09-16T20:07:20.428Z,0.70
2022-09-16T20:09:49.516Z,0.80
2022-09-16T20:12:18.176Z,0.88
2022-09-16T20:14:46.594Z,1.00
2022-09-16T20:17:15.234Z,0.90
2022-09-16T20:19:49.075Z,1.13
2022-09-16T20:24:53.746Z,0.82
2022-09-16T20:27:29.622Z,0.93
2022-09-16T20:29:57.981Z,0.68
2022-09-16T20:32:29.492Z,0.90
2022-09-16T20:35:00.347Z,0.90
2022-09-16T20:37:29.050Z,1.17
2022-09-16T20:39:59.369Z,1.20
2022-09-16T20:42:32.118Z,0.88
2022-09-16T20:45:00.569Z,1.10
2022-09-16T20:47:30.531Z,0.82
2022-09-16T20:50:01.042Z,1.30
2022-09-16T20:52:30.094Z,1.00
2022-09-16T20:55:05.627Z,1.00
2022-09-16T20:57:34.407Z,1.02
2022-09-16T21:00:04.097Z,1.20
2022-09-16T21:02:32.898Z,0.90
2022-09-16T21:05:05.153Z,0.95
2022-09-16T21:07:33.747Z,0.80
2022-09-16T21:10:02.449Z,0.93
2022-09-16T21:12:35.608Z,0.80
2022-09-16T21:15:04.456Z,1.17
2022-09-16T21:17:35.778Z,0.95
2022-09-16T21:20:08.739Z,0.90
2022-09-16T21:22:39.929Z,0.93
2022-09-16T21:25:08.685Z,1.02
2022-09-16T21:27:37.429Z,0.98
2022-09-16T21:30:08.519Z,1.00
2022-09-16T21:32:37.384Z,0.85
2022-09-16T21:35:08.732Z,0.82
2022-09-16T21:37:37.893Z,0.98
2022-09-16T21:40:09.975Z,1.10
2022-09-16T21:42:40.627Z,1.00
2022-09-16T21:45:10.140Z,1.05
2022-09-16T21:47:39.077Z,1.00
2022-09-16T21:50:10.014Z,1.00
2022-09-16T21:52:38.539Z,1.10
2022-09-16T21:55:07.232Z,1.00
2022-09-16T21:57:36.821Z,1.08
2022-09-16T22:00:05.897Z,0.90
2022-09-16T22:02:37.699Z,1.00
2022-09-16T22:05:06.762Z,1.23
2022-09-16T22:07:36.627Z,1.10
2022-09-16T22:10:05.241Z,0.90
2022-09-16T22:12:35.314Z,1.13
2022-09-16T22:15:04.134Z,1.20
2022-09-16T22:17:32.760Z,1.20
2022-09-16T22:20:01.568Z,0.82
2022-09-16T22:22:32.351Z,1.00
2022-09-16T22:25:03.206Z,0.85
2022-09-16T22:27:31.831Z,0.75
2022-09-16T22:30:00.443Z,0.80
2022-09-16T22:32:29.384Z,0.90
2022-09-16T22:34:57.985Z,0.80
2022-09-16T22:37:26.534Z,0.80
2022-09-16T22:39:55.037Z,0.98
2022-09-16T22:42:25.680Z,0.70
2022-09-16T22:44:54.186Z,0.70
2022-09-16T22:47:25.610Z,0.80
2022-09-16T22:49:54.326Z,0.80
2022-09-16T22:52:23.903Z,0.77
2022-09-16T22:54:53.004Z,0.73
2022-09-16T22:57:24.477Z,1.02
2022-09-16T23:00:00.834Z,0.82
2022-09-16T23:02:31.244Z,0.88
2022-09-16T23:04:59.727Z,0.73
2022-09-16T23:07:31.097Z,0.60
2022-09-16T23:10:00.657Z,1.10
2022-09-16T23:12:32.830Z,0.90
2022-09-16T23:15:02.615Z,0.70
2022-09-16T23:17:31.250Z,0.80
2022-09-16T23:20:00.289Z,1.00
2022-09-16T23:22:28.718Z,1.23
2022-09-16T23:24:57.251Z,0.88
2022-09-16T23:27:25.935Z,1.08
2022-09-16T23:29:54.988Z,0.90
2022-09-16T23:32:39.639Z,1.00
2022-09-16T23:35:09.862Z,0.90
2022-09-16T23:37:38.316Z,0.70
2022-09-16T23:40:07.625Z,0.90
2022-09-16T23:42:37.354Z,1.17
2022-09-16T23:45:07.038Z,1.35
2022-09-16T23:47:38.706Z,1.30
2022-09-16T23:50:11.744Z,1.10
2022-09-16T23:52:40.313Z,1.50
2022-09-16T23:55:09.262Z,1.85
2022-09-16T23:57:37.947Z,1.42
